Latest METARs, TAFs and NOTAMs for MMTO


---------------------------------------------------------------------------
	(OBSERVATIONS)
MMTO 242003Z 26010KT 7SM -TSRA  BKN015CB BKN070 BKN200 19/08
     A3029 RMK 8/962 -TSRA B 00= TX_OP
MMTO 241947Z 32007KT 7SM  BKN015CB BKN200 21/08 A3029  RMK 8/302
    PCPN SW=
MMTO 241847Z 29004KT 6SM  BKN015CB BKN070 BKN200 20/07 A3031
     RMK 8/363 HZY=
MMTO 241750Z 28003KT 5SM  SCT015TCU SCT070 BKN200 19/08 A3034
     RMK SLP083 57015 954 8/232 HZY=
---------------------------------------------------------------------------
	(TERMINAL AREA FORECAST)
COR MMTO 241855Z 2418/2524 24010KT 6SM HZ BKN015CB BKN200 TX21/2421Z
    TN08/2512Z
    FM242100 20010KT 5SM VC RA BKN015CB OVC080
    TEMPO 2422/2502 2SM TSRA OVC010CB
    FM250300 00000KT 5SM RA BKN015 OVC070
    FM250600 00000KT 4SM HZ BKN010
    FM251500 00000KT 5SM HZ SCT015 BKN200
    PROB40 2520/2524 4SM TSRA BKN015CB=
---------------------------------------------------------------------------
	(NOTAMS)


MMTO A2961/18 RWY 15/33 CLSD. 1600/1700 ONLY DAYS TUE, 05 JUN
    16:00 2018 UNTIL 31 JUL 17:00 2018. CREATED: 01 JUN 19:35
    2018

---------------------------------------------------------------------------